createdAt,value
2022-08-26T00:03:36.349Z,10.20
2022-08-26T00:08:38.637Z,9.97
2022-08-26T00:13:41.124Z,10.07
2022-08-26T00:18:50.131Z,10.93
2022-08-26T00:23:51.868Z,10.30
2022-08-26T00:28:53.621Z,10.23
2022-08-26T00:33:55.599Z,10.47
2022-08-26T00:38:58.421Z,9.53
2022-08-26T00:44:00.304Z,9.80
2022-08-26T00:49:11.943Z,10.57
2022-08-26T00:54:14.953Z,10.50
2022-08-26T00:59:17.581Z,10.70
2022-08-26T01:04:23.627Z,9.83
2022-08-26T01:09:28.076Z,11.50
2022-08-26T01:14:35.267Z,11.10
2022-08-26T01:19:43.662Z,10.30
2022-08-26T01:24:45.933Z,10.37
2022-08-26T01:29:50.473Z,11.80
2022-08-26T01:34:52.979Z,10.57
2022-08-26T01:39:56.262Z,11.57
2022-08-26T01:45:09.581Z,11.40
2022-08-26T01:50:18.011Z,10.73
2022-08-26T01:55:32.983Z,11.27
2022-08-26T02:00:36.336Z,11.67
2022-08-26T02:05:38.373Z,10.90
2022-08-26T02:10:40.133Z,11.70
2022-08-26T02:15:43.245Z,10.27
2022-08-26T02:20:44.953Z,10.83
2022-08-26T02:25:57.992Z,10.83
2022-08-26T02:31:00.804Z,10.73
2022-08-26T02:36:05.669Z,11.70
2022-08-26T02:41:10.137Z,11.47
2022-08-26T02:46:12.212Z,11.13
2022-08-26T02:51:23.223Z,10.77
2022-08-26T02:56:25.538Z,11.03
2022-08-26T03:01:30.776Z,11.50
2022-08-26T03:06:33.072Z,12.00
2022-08-26T03:11:35.625Z,11.60
2022-08-26T03:16:38.270Z,11.80
2022-08-26T03:21:40.180Z,11.77
2022-08-26T03:26:52.345Z,12.53
2022-08-26T03:31:55.286Z,11.97
2022-08-26T03:36:57.301Z,13.17
2022-08-26T03:41:59.216Z,13.13
2022-08-26T03:47:01.201Z,13.67
2022-08-26T03:52:04.140Z,12.87
2022-08-26T03:57:05.930Z,13.73
2022-08-26T04:02:07.688Z,14.23
2022-08-26T04:07:13.172Z,16.40
2022-08-26T04:12:15.371Z,14.00
2022-08-26T04:17:17.175Z,13.80
2022-08-26T04:22:24.059Z,15.63
2022-08-26T04:27:27.240Z,12.93
2022-08-26T04:32:28.982Z,14.33
2022-08-26T04:37:32.102Z,14.77
2022-08-26T04:42:34.381Z,15.97
2022-08-26T04:47:36.110Z,16.20
2022-08-26T04:52:38.757Z,14.87
2022-08-26T04:57:40.705Z,14.63
2022-08-26T05:02:43.684Z,14.37
2022-08-26T05:07:45.396Z,17.13
2022-08-26T05:12:47.236Z,18.43
2022-08-26T05:17:50.588Z,16.83
2022-08-26T05:23:04.811Z,18.80
2022-08-26T05:28:06.818Z,17.23
2022-08-26T05:33:10.024Z,17.33
2022-08-26T05:38:15.858Z,22.73
2022-08-26T05:43:18.295Z,24.20
2022-08-26T05:48:22.670Z,18.23
2022-08-26T05:53:26.360Z,19.77
2022-08-26T05:58:28.422Z,17.03
2022-08-26T06:03:31.655Z,15.93
2022-08-26T06:08:34.470Z,17.37
2022-08-26T06:13:37.265Z,15.13
2022-08-26T06:18:42.520Z,15.77
2022-08-26T06:24:03.898Z,16.87
2022-08-26T06:29:06.352Z,16.40
2022-08-26T06:34:10.935Z,18.90
2022-08-26T06:39:14.809Z,19.40
2022-08-26T06:44:16.679Z,19.90
2022-08-26T06:49:18.510Z,20.10
2022-08-26T06:54:31.528Z,20.47
2022-08-26T06:59:33.402Z,21.63
2022-08-26T07:04:35.708Z,20.77
2022-08-26T07:09:37.614Z,20.90
2022-08-26T07:14:39.391Z,24.30
2022-08-26T07:19:41.162Z,22.07
2022-08-26T07:24:43.012Z,22.47
2022-08-26T07:29:45.803Z,27.70
2022-08-26T07:34:47.639Z,27.20
2022-08-26T07:39:49.412Z,29.43
2022-08-26T07:44:51.195Z,29.10
2022-08-26T07:49:57.477Z,32.10
2022-08-26T07:55:01.528Z,30.20
2022-08-26T08:00:07.463Z,57.50
2022-08-26T08:05:09.620Z,29.70
2022-08-26T08:10:15.424Z,36.57
2022-08-26T08:15:20.105Z,36.77
2022-08-26T08:20:23.086Z,36.83
2022-08-26T08:25:25.068Z,39.57
2022-08-26T08:30:27.525Z,37.00
2022-08-26T08:35:29.234Z,37.37
2022-08-26T08:40:31.747Z,36.77
2022-08-26T08:45:47.640Z,33.20
2022-08-26T08:50:53.963Z,38.23
2022-08-26T08:56:11.123Z,34.83
2022-08-26T09:01:25.711Z,34.40
2022-08-26T09:06:27.722Z,30.23
2022-08-26T09:11:29.664Z,29.33
2022-08-26T09:16:52.052Z,28.73
2022-08-26T09:22:01.608Z,29.83
2022-08-26T09:27:04.994Z,28.70
2022-08-26T09:32:24.317Z,28.03
2022-08-26T09:37:53.156Z,31.57
2022-08-26T09:43:11.708Z,26.70
2022-08-26T09:48:35.569Z,28.07
2022-08-26T09:53:54.834Z,29.20
2022-08-26T09:58:57.723Z,28.80
2022-08-26T10:04:14.552Z,28.10
2022-08-26T10:09:18.026Z,29.43
2022-08-26T10:14:49.049Z,27.30
2022-08-26T10:20:23.090Z,24.27
2022-08-26T10:25:31.730Z,27.40
2022-08-26T10:30:47.440Z,31.57
2022-08-26T10:35:58.948Z,28.03
2022-08-26T10:41:14.353Z,26.47
2022-08-26T10:46:23.826Z,30.90
2022-08-26T10:51:36.450Z,25.83
2022-08-26T10:56:38.292Z,25.23
2022-08-26T11:01:50.979Z,24.40
2022-08-26T11:07:31.972Z,22.45
2022-08-26T11:12:37.308Z,26.55
2022-08-26T11:18:00.551Z,26.60
2022-08-26T11:23:23.963Z,25.90
2022-08-26T11:28:39.924Z,26.90
2022-08-26T11:33:45.999Z,27.30
2022-08-26T11:38:47.814Z,24.40
2022-08-26T11:43:52.478Z,27.87
2022-08-26T11:49:05.827Z,22.00
2022-08-26T11:54:15.113Z,21.30
2022-08-26T12:04:40.118Z,23.90
2022-08-26T12:09:54.788Z,25.60
2022-08-26T12:15:18.605Z,24.87
2022-08-26T12:20:20.488Z,24.25
2022-08-26T12:25:23.711Z,25.95
2022-08-26T12:30:26.186Z,24.13
2022-08-26T12:35:28.849Z,24.58
2022-08-26T12:40:40.439Z,25.47
2022-08-26T12:46:06.599Z,25.10
2022-08-26T12:51:25.901Z,23.15
2022-08-26T12:56:34.158Z,22.08
2022-08-26T13:01:39.051Z,21.35
2022-08-26T13:06:40.956Z,20.65
2022-08-26T13:11:42.790Z,21.58
2022-08-26T13:16:46.117Z,19.52
2022-08-26T13:21:58.631Z,19.35
2022-08-26T13:27:01.716Z,18.20
2022-08-26T13:32:04.838Z,22.02
2022-08-26T13:37:06.771Z,19.92
2022-08-26T13:42:09.036Z,16.30
2022-08-26T13:47:11.477Z,17.02
2022-08-26T13:52:13.530Z,17.58
2022-08-26T13:57:15.884Z,18.60
2022-08-26T14:02:17.824Z,15.27
2022-08-26T14:07:51.182Z,18.15
2022-08-26T14:12:53.715Z,17.35
2022-08-26T14:17:55.446Z,16.53
2022-08-26T14:23:13.297Z,17.02
2022-08-26T14:28:16.102Z,16.20
2022-08-26T14:33:20.414Z,17.20
2022-08-26T14:38:29.969Z,16.20
2022-08-26T14:43:31.822Z,16.57
2022-08-26T14:48:33.534Z,14.50
2022-08-26T14:53:54.053Z,14.23
2022-08-26T14:58:55.770Z,13.83
2022-08-26T15:03:58.076Z,13.23
2022-08-26T15:08:59.876Z,12.23
2022-08-26T15:14:02.446Z,13.43
2022-08-26T15:19:05.115Z,12.40
2022-08-26T15:24:07.037Z,12.27
2022-08-26T15:29:08.824Z,10.03
2022-08-26T15:34:16.023Z,12.03
2022-08-26T15:39:18.871Z,11.97
2022-08-26T15:44:20.623Z,9.57
2022-08-26T15:49:22.545Z,9.80
2022-08-26T15:54:24.478Z,11.43
2022-08-26T15:59:26.214Z,8.40
2022-08-26T16:04:28.537Z,13.17
2022-08-26T16:09:30.736Z,9.27
2022-08-26T16:14:32.535Z,7.97
2022-08-26T16:19:34.251Z,7.30
2022-08-26T16:24:37.018Z,8.43
2022-08-26T16:29:39.921Z,6.97
2022-08-26T16:34:47.096Z,8.53
2022-08-26T16:39:58.631Z,6.93
2022-08-26T16:45:00.446Z,8.13
2022-08-26T16:50:03.821Z,7.10
2022-08-26T16:55:11.990Z,7.30
2022-08-26T17:00:21.734Z,7.10
2022-08-26T17:05:25.181Z,5.90
2022-08-26T17:10:28.730Z,8.07
2022-08-26T17:15:30.910Z,11.07
2022-08-26T17:20:33.625Z,13.97
2022-08-26T17:25:35.459Z,15.37
2022-08-26T17:30:37.661Z,6.90
2022-08-26T17:35:39.444Z,7.20
2022-08-26T17:40:41.472Z,6.93
2022-08-26T17:45:44.613Z,7.97
2022-08-26T17:50:49.585Z,6.17
2022-08-26T17:55:52.342Z,6.53
2022-08-26T18:00:54.945Z,7.27
2022-08-26T18:05:57.488Z,6.27
2022-08-26T18:10:59.474Z,6.77
2022-08-26T18:16:04.381Z,18.33
2022-08-26T18:21:17.746Z,8.93
2022-08-26T18:26:29.116Z,8.43
2022-08-26T18:31:39.357Z,6.30
2022-08-26T18:36:41.692Z,6.17
2022-08-26T18:41:47.661Z,5.63
2022-08-26T18:46:50.402Z,6.13
2022-08-26T18:51:52.393Z,6.90
2022-08-26T18:56:54.446Z,5.93
2022-08-26T19:01:56.270Z,5.43
2022-08-26T19:06:59.514Z,5.33
2022-08-26T19:12:06.730Z,4.47
2022-08-26T19:17:09.580Z,4.87
2022-08-26T19:22:11.313Z,4.67
2022-08-26T19:27:15.001Z,5.23
2022-08-26T19:32:17.577Z,4.20
2022-08-26T19:37:20.552Z,3.57
2022-08-26T19:42:22.235Z,4.67
2022-08-26T19:47:24.086Z,4.37
2022-08-26T19:52:30.198Z,4.27
2022-08-26T19:57:32.131Z,3.47
2022-08-26T20:02:34.066Z,3.93
2022-08-26T20:07:36.322Z,4.23
2022-08-26T20:12:38.305Z,3.00
2022-08-26T20:17:40.951Z,4.13
2022-08-26T20:22:43.176Z,4.00
2022-08-26T20:27:44.912Z,3.10
2022-08-26T20:32:46.740Z,3.20
2022-08-26T20:37:48.595Z,3.90
2022-08-26T20:42:50.533Z,3.77
2022-08-26T20:47:52.559Z,3.17
2022-08-26T20:52:54.507Z,3.70
2022-08-26T20:57:56.303Z,2.63
2022-08-26T21:02:59.935Z,4.67
2022-08-26T21:08:01.686Z,3.70
2022-08-26T21:13:03.553Z,3.83
2022-08-26T21:18:05.353Z,3.40
2022-08-26T21:23:07.252Z,4.27
2022-08-26T21:28:09.129Z,3.70
2022-08-26T21:33:10.925Z,4.30
2022-08-26T21:38:13.004Z,3.70
2022-08-26T21:43:22.703Z,4.17
2022-08-26T21:48:36.990Z,4.67
2022-08-26T21:53:39.308Z,5.03
2022-08-26T21:58:41.359Z,3.77
2022-08-26T22:03:46.847Z,4.37
2022-08-26T22:08:50.092Z,4.80
2022-08-26T22:13:52.371Z,4.47
2022-08-26T22:18:54.682Z,4.87
2022-08-26T22:23:58.552Z,4.37
2022-08-26T22:29:01.374Z,4.90
2022-08-26T22:34:06.322Z,3.97
2022-08-26T22:39:08.128Z,4.07
2022-08-26T22:44:13.698Z,3.73
2022-08-26T22:49:16.393Z,4.07
2022-08-26T22:54:18.140Z,4.97
2022-08-26T22:59:19.897Z,4.80
2022-08-26T23:04:21.634Z,4.97
2022-08-26T23:09:23.409Z,4.80
2022-08-26T23:14:26.044Z,5.70
2022-08-26T23:19:27.777Z,4.67
2022-08-26T23:24:29.523Z,5.30
2022-08-26T23:29:31.347Z,5.27
2022-08-26T23:34:52.099Z,5.93
2022-08-26T23:39:56.238Z,5.90
2022-08-26T23:44:58.198Z,5.33
2022-08-26T23:50:00.009Z,4.90
2022-08-26T23:55:08.362Z,4.70
